Time;durP1;ratioP1;P1;durP2;ratioP2;P2;SDS_P1;SDS_P2;PMS_P1;PMS_P2;Temp;Humidity;BMP_temperature;BMP_pressure;BME280_temperature;BME280_humidity;BME280_pressure;Samples;Min_cycle;Max_cycle;Signal;HPM_P1;HPM_P2
2022/04/18 00:02:09;;;;;;;17.40;13.02;;;;;;;;;;6217695;23;20323;-63
2022/04/18 00:04:36;;;;;;;16.27;12.07;;;;;;;;;;6217590;23;20172;-64
2022/04/18 00:07:02;;;;;;;16.10;12.10;;;;;;;;;;6217539;23;20222;-64
2022/04/18 00:09:33;;;;;;;15.70;11.98;;;;;;;;;;6217280;23;20152;-63
2022/04/18 00:11:59;;;;;;;17.25;12.90;;;;;;;;;;6217259;23;20529;-64
2022/04/18 00:14:25;;;;;;;15.98;12.18;;;;;;;;;;6217177;23;20573;-64
2022/04/18 00:16:51;;;;;;;15.00;12.20;;;;;;;;;;6217154;23;20180;-64
2022/04/18 00:19:17;;;;;;;16.98;12.02;;;;;;;;;;6217097;23;20549;-64
2022/04/18 00:21:43;;;;;;;16.25;12.38;;;;;;;;;;6217003;23;20145;-64
2022/04/18 00:24:10;;;;;;;16.88;12.32;;;;;;;;;;6216973;23;20173;-64
2022/04/18 00:26:39;;;;;;;17.10;11.20;;;;;;;;;;6217128;23;20576;-64
2022/04/18 00:29:05;;;;;;;19.88;12.60;;;;;;;;;;6217016;23;20138;-62
2022/04/18 00:31:31;;;;;;;16.73;12.07;;;;;;;;;;6217016;23;20176;-63
2022/04/18 00:33:57;;;;;;;16.45;11.65;;;;;;;;;;6216809;23;20215;-62
2022/04/18 00:36:23;;;;;;;16.70;11.90;;;;;;;;;;6216975;23;20141;-64
2022/04/18 00:38:49;;;;;;;15.00;11.65;;;;;;;;;;6216867;23;20232;-64
2022/04/18 00:41:14;;;;;;;15.68;11.43;;;;;;;;;;6217644;23;20220;-64
2022/04/18 00:43:42;;;;;;;13.77;10.75;;;;;;;;;;6216901;23;20171;-63
2022/04/18 00:46:08;;;;;;;14.98;10.75;;;;;;;;;;6217082;23;20582;-64
2022/04/18 00:48:34;;;;;;;14.13;8.52;;;;;;;;;;6216709;23;20137;-64
2022/04/18 00:51:00;;;;;;;13.95;8.85;;;;;;;;;;6217113;23;20494;-64
2022/04/18 00:53:26;;;;;;;12.73;8.98;;;;;;;;;;6216759;23;20149;-64
2022/04/18 00:55:53;;;;;;;16.65;8.80;;;;;;;;;;6216785;23;20435;-64
2022/04/18 00:58:19;;;;;;;13.45;9.90;;;;;;;;;;6216709;23;20169;-64
2022/04/18 01:00:45;;;;;;;15.88;9.63;;;;;;;;;;6216744;23;20141;-64
2022/04/18 01:03:11;;;;;;;13.88;9.43;;;;;;;;;;6216405;23;20204;-64
2022/04/18 01:05:37;;;;;;;13.88;10.23;;;;;;;;;;6217659;23;20141;-64
2022/04/18 01:08:04;;;;;;;12.95;9.38;;;;;;;;;;6217361;23;20145;-64
2022/04/18 01:10:30;;;;;;;15.10;10.32;;;;;;;;;;6216872;23;20184;-64
2022/04/18 01:12:56;;;;;;;16.23;10.18;;;;;;;;;;6216549;23;20438;-64
2022/04/18 01:15:22;;;;;;;11.60;8.25;;;;;;;;;;6216748;23;20199;-64
2022/04/18 01:17:48;;;;;;;14.25;10.05;;;;;;;;;;6216734;23;20148;-64
2022/04/18 01:20:14;;;;;;;16.75;10.30;;;;;;;;;;6216816;23;20152;-64
2022/04/18 01:22:42;;;;;;;13.65;10.15;;;;;;;;;;6216687;23;20150;-64
2022/04/18 01:30:38;;;;;;;13.23;9.15;;;;;;;;;;6216405;23;20144;-63
2022/04/18 01:33:04;;;;;;;15.13;8.75;;;;;;;;;;6216103;23;20165;-63
2022/04/18 01:35:30;;;;;;;16.70;9.10;;;;;;;;;;6216612;23;20145;-64
2022/04/18 01:37:56;;;;;;;12.90;8.60;;;;;;;;;;6216274;23;20141;-64
2022/04/18 01:40:22;;;;;;;13.85;8.82;;;;;;;;;;6216073;23;20144;-63
2022/04/18 01:42:47;;;;;;;12.45;9.30;;;;;;;;;;6216465;23;20148;-63
2022/04/18 01:45:13;;;;;;;17.00;9.82;;;;;;;;;;6216625;23;20173;-63
2022/04/18 01:47:39;;;;;;;15.95;10.13;;;;;;;;;;6216447;23;20137;-63
2022/04/18 01:50:06;;;;;;;14.43;9.48;;;;;;;;;;6216299;23;20219;-64
2022/04/18 01:52:31;;;;;;;13.18;10.30;;;;;;;;;;6216710;23;20149;-64
2022/04/18 01:54:57;;;;;;;15.20;10.20;;;;;;;;;;6216678;23;20307;-65
2022/04/18 01:57:23;;;;;;;14.90;9.68;;;;;;;;;;6216248;23;20152;-64
2022/04/18 01:59:49;;;;;;;15.20;9.88;;;;;;;;;;6216193;23;20553;-64
2022/04/18 02:02:15;;;;;;;13.05;9.27;;;;;;;;;;6216116;23;20145;-64
2022/04/18 02:04:41;;;;;;;15.70;10.13;;;;;;;;;;6215961;23;20169;-64
2022/04/18 02:07:09;;;;;;;15.10;9.70;;;;;;;;;;6216138;23;20493;-64
2022/04/18 02:09:35;;;;;;;13.15;9.38;;;;;;;;;;6216089;23;20216;-64
2022/04/18 02:12:01;;;;;;;15.25;9.75;;;;;;;;;;6216519;23;20167;-64
2022/04/18 02:14:27;;;;;;;14.05;9.25;;;;;;;;;;6216401;23;20491;-64
2022/04/18 02:16:53;;;;;;;15.80;9.80;;;;;;;;;;6217038;23;20152;-64
2022/04/18 02:19:19;;;;;;;14.60;9.50;;;;;;;;;;6217309;23;20149;-64
2022/04/18 02:21:45;;;;;;;13.82;9.65;;;;;;;;;;6216587;23;20567;-64
2022/04/18 02:24:14;;;;;;;14.15;9.48;;;;;;;;;;6216302;23;20207;-64
2022/04/18 02:26:39;;;;;;;15.88;10.68;;;;;;;;;;6217624;23;20164;-64
2022/04/18 02:29:06;;;;;;;16.45;9.93;;;;;;;;;;6218753;23;20148;-64
2022/04/18 02:32:47;;;;;;;14.20;9.43;;;;;;;;;;6217688;23;20148;-64
2022/04/18 02:34:17;;;;;;;12.70;8.65;;;;;;;;;;6217373;23;20153;-64
2022/04/18 02:36:43;;;;;;;12.68;8.73;;;;;;;;;;6216813;23;20151;-64
2022/04/18 02:39:09;;;;;;;15.65;10.20;;;;;;;;;;6217155;23;20439;-64
2022/04/18 02:41:36;;;;;;;27.05;18.00;;;;;;;;;;6216794;23;20199;-64
2022/04/18 02:44:02;;;;;;;21.00;15.25;;;;;;;;;;6216856;23;20176;-64
2022/04/18 02:46:27;;;;;;;22.17;16.27;;;;;;;;;;6216572;23;20522;-64
2022/04/18 02:48:53;;;;;;;23.20;15.77;;;;;;;;;;6216389;23;20141;-63
2022/04/18 02:51:19;;;;;;;21.83;15.38;;;;;;;;;;6217990;23;20174;-64
2022/04/18 02:53:45;;;;;;;18.30;11.35;;;;;;;;;;6215896;23;20176;-64
2022/04/18 02:56:11;;;;;;;17.15;12.27;;;;;;;;;;6215742;23;20153;-64
2022/04/18 02:58:38;;;;;;;21.38;12.38;;;;;;;;;;6215967;23;20144;-64
2022/04/18 03:01:03;;;;;;;18.48;11.82;;;;;;;;;;6216162;23;20145;-64
2022/04/18 03:03:29;;;;;;;16.52;11.10;;;;;;;;;;6215724;23;20199;-63
2022/04/18 03:05:55;;;;;;;18.40;10.73;;;;;;;;;;6215684;23;20145;-64
2022/04/18 03:08:21;;;;;;;18.40;11.27;;;;;;;;;;6215796;23;20141;-63
2022/04/18 03:11:03;;;;;;;15.35;10.77;;;;;;;;;;6215581;23;20252;-63
2022/04/18 03:13:29;;;;;;;13.82;9.55;;;;;;;;;;6216185;23;20125;-64
2022/04/18 03:15:55;;;;;;;14.52;10.18;;;;;;;;;;6215833;23;20144;-64
2022/04/18 03:18:21;;;;;;;15.90;9.93;;;;;;;;;;6215951;23;20164;-65
2022/04/18 03:20:47;;;;;;;13.75;9.57;;;;;;;;;;6215617;23;20149;-64
2022/04/18 03:23:13;;;;;;;14.50;9.45;;;;;;;;;;6216058;23;20144;-64
2022/04/18 03:25:39;;;;;;;15.32;9.10;;;;;;;;;;6216761;23;20141;-64
2022/04/18 03:28:05;;;;;;;14.90;9.63;;;;;;;;;;6217677;23;20561;-64
2022/04/18 03:30:31;;;;;;;16.60;10.18;;;;;;;;;;6218059;23;20156;-63
2022/04/18 03:32:57;;;;;;;16.70;9.38;;;;;;;;;;6217729;23;20168;-63
2022/04/18 03:35:22;;;;;;;15.73;8.98;;;;;;;;;;6217506;23;20137;-64
2022/04/18 03:40:34;;;;;;;14.38;8.10;;;;;;;;;;6217555;23;20141;-63
2022/04/18 03:43:00;;;;;;;12.52;8.18;;;;;;;;;;6217631;23;20144;-64
2022/04/18 03:45:26;;;;;;;13.50;7.70;;;;;;;;;;6217393;23;20624;-65
2022/04/18 03:47:52;;;;;;;14.45;8.65;;;;;;;;;;6217689;23;20465;-64
2022/04/18 03:50:18;;;;;;;13.73;8.52;;;;;;;;;;6217428;23;20176;-64
2022/04/18 03:52:44;;;;;;;11.98;7.88;;;;;;;;;;6217386;23;20141;-64
2022/04/18 03:55:11;;;;;;;13.50;7.60;;;;;;;;;;6217409;23;20227;-64
2022/04/18 03:57:37;;;;;;;12.35;7.80;;;;;;;;;;6217798;23;20148;-64
2022/04/18 04:00:04;;;;;;;12.23;7.65;;;;;;;;;;6217584;23;20224;-64
2022/04/18 04:02:30;;;;;;;11.52;8.00;;;;;;;;;;6218494;23;20228;-64
2022/04/18 04:04:56;;;;;;;12.55;8.10;;;;;;;;;;6217180;23;20197;-63
2022/04/18 04:07:22;;;;;;;11.45;6.88;;;;;;;;;;6217370;23;20590;-64
2022/04/18 04:09:48;;;;;;;15.38;7.75;;;;;;;;;;6217389;23;20458;-64
2022/04/18 04:12:14;;;;;;;12.23;7.22;;;;;;;;;;6217921;23;20215;-63
2022/04/18 04:14:40;;;;;;;13.00;7.22;;;;;;;;;;6217625;23;20152;-63
2022/04/18 04:17:06;;;;;;;13.40;7.15;;;;;;;;;;6217596;23;20160;-62
2022/04/18 04:19:32;;;;;;;9.85;5.85;;;;;;;;;;6217636;23;20160;-62
2022/04/18 04:21:58;;;;;;;11.15;5.70;;;;;;;;;;6217621;23;20141;-63
2022/04/18 04:24:24;;;;;;;9.68;4.88;;;;;;;;;;6217438;23;20165;-63
2022/04/18 04:26:50;;;;;;;9.18;5.60;;;;;;;;;;6217226;23;20177;-63
2022/04/18 04:29:17;;;;;;;9.82;6.25;;;;;;;;;;6217411;23;20137;-63
2022/04/18 04:31:43;;;;;;;10.13;5.78;;;;;;;;;;6217763;23;20145;-63
2022/04/18 04:34:11;;;;;;;12.82;7.03;;;;;;;;;;6217524;23;20151;-64
2022/04/18 04:36:37;;;;;;;11.80;7.13;;;;;;;;;;6216791;23;20141;-64
2022/04/18 04:39:03;;;;;;;8.93;5.93;;;;;;;;;;6217168;23;20208;-64
2022/04/18 04:41:29;;;;;;;10.57;6.93;;;;;;;;;;6216805;23;20223;-65
2022/04/18 04:43:55;;;;;;;11.00;6.80;;;;;;;;;;6216751;23;20165;-64
2022/04/18 04:46:21;;;;;;;11.45;6.25;;;;;;;;;;6216826;23;20149;-64
2022/04/18 04:48:47;;;;;;;10.52;6.72;;;;;;;;;;6190699;23;20233;-64
2022/04/18 04:51:13;;;;;;;13.88;8.00;;;;;;;;;;6217009;23;20442;-64
2022/04/18 04:53:39;;;;;;;12.25;7.53;;;;;;;;;;6216885;23;20452;-64
2022/04/18 04:56:05;;;;;;;14.63;8.80;;;;;;;;;;6216787;23;20145;-64
2022/04/18 04:58:30;;;;;;;13.30;7.75;;;;;;;;;;6216937;23;20506;-64
2022/04/18 05:00:57;;;;;;;12.27;8.57;;;;;;;;;;6216806;23;20588;-64
2022/04/18 05:03:23;;;;;;;17.05;9.93;;;;;;;;;;6216803;23;20258;-63
2022/04/18 05:05:48;;;;;;;14.57;9.73;;;;;;;;;;6220864;23;20141;-64
2022/04/18 05:08:14;;;;;;;14.70;10.63;;;;;;;;;;6222227;23;20141;-64
2022/04/18 05:10:40;;;;;;;20.40;12.25;;;;;;;;;;6216521;23;20248;-63
2022/04/18 05:13:06;;;;;;;15.73;10.70;;;;;;;;;;6216947;23;20145;-64
2022/04/18 05:15:33;;;;;;;19.17;11.32;;;;;;;;;;6216684;23;20136;-64
2022/04/18 05:17:59;;;;;;;13.88;9.32;;;;;;;;;;6216749;23;20137;-64
2022/04/18 05:20:25;;;;;;;14.82;10.57;;;;;;;;;;6216759;23;20164;-64
2022/04/18 05:22:50;;;;;;;13.73;9.35;;;;;;;;;;6216817;23;20441;-64
2022/04/18 05:25:16;;;;;;;12.85;9.13;;;;;;;;;;6217017;23;20168;-64
2022/04/18 05:27:43;;;;;;;15.38;9.45;;;;;;;;;;6217418;23;20141;-64
2022/04/18 05:30:09;;;;;;;12.98;8.88;;;;;;;;;;6216636;23;20137;-64
2022/04/18 05:32:35;;;;;;;14.75;9.07;;;;;;;;;;6216705;23;20148;-62
2022/04/18 05:35:01;;;;;;;16.05;8.85;;;;;;;;;;6216596;23;20354;-64
2022/04/18 05:37:27;;;;;;;14.27;9.27;;;;;;;;;;6216378;23;20141;-63
2022/04/18 05:39:53;;;;;;;11.32;7.90;;;;;;;;;;6216673;23;20149;-63
2022/04/18 05:42:21;;;;;;;11.77;8.10;;;;;;;;;;6216529;23;20185;-64
2022/04/18 05:44:47;;;;;;;13.23;8.30;;;;;;;;;;6216601;23;20222;-62
2022/04/18 05:47:13;;;;;;;10.63;7.93;;;;;;;;;;6216262;23;20247;-63
2022/04/18 05:49:39;;;;;;;12.82;8.10;;;;;;;;;;6190082;23;20297;-62
2022/04/18 05:52:05;;;;;;;13.77;8.38;;;;;;;;;;6216558;23;20224;-63
2022/04/18 05:54:31;;;;;;;9.23;7.38;;;;;;;;;;6216756;23;20145;-63
2022/04/18 05:56:59;;;;;;;12.90;8.32;;;;;;;;;;6216281;23;20155;-64
2022/04/18 05:59:25;;;;;;;12.77;7.82;;;;;;;;;;6216230;23;20152;-63
2022/04/18 06:01:51;;;;;;;12.80;8.48;;;;;;;;;;6216437;23;20145;-63
2022/04/18 06:04:18;;;;;;;11.95;8.27;;;;;;;;;;6216158;23;20161;-63
2022/04/18 06:06:44;;;;;;;11.25;7.88;;;;;;;;;;6216562;23;20564;-63
2022/04/18 06:09:10;;;;;;;12.02;8.18;;;;;;;;;;6216220;23;20160;-63
2022/04/18 06:11:36;;;;;;;11.73;8.00;;;;;;;;;;6215933;23;20449;-63
2022/04/18 06:14:02;;;;;;;10.27;7.57;;;;;;;;;;6216088;23;20155;-63
2022/04/18 06:16:28;;;;;;;11.07;7.90;;;;;;;;;;6216327;23;20149;-65
2022/04/18 06:18:54;;;;;;;11.60;8.05;;;;;;;;;;6216300;23;20224;-63
2022/04/18 06:21:20;;;;;;;11.00;8.00;;;;;;;;;;6216011;23;20255;-63
2022/04/18 06:23:46;;;;;;;10.73;7.80;;;;;;;;;;6216074;23;20677;-63
2022/04/18 06:26:12;;;;;;;11.07;7.88;;;;;;;;;;6216037;23;20612;-62
2022/04/18 06:28:38;;;;;;;10.40;6.90;;;;;;;;;;6216339;23;20141;-65
2022/04/18 06:31:04;;;;;;;10.93;7.35;;;;;;;;;;6215959;23;20192;-64
2022/04/18 06:33:32;;;;;;;9.52;6.47;;;;;;;;;;6216146;23;20153;-64
2022/04/18 06:35:58;;;;;;;12.55;7.32;;;;;;;;;;6216371;23;20149;-64
2022/04/18 06:38:25;;;;;;;10.88;6.30;;;;;;;;;;6215832;23;20145;-64
2022/04/18 06:40:51;;;;;;;9.82;6.97;;;;;;;;;;6216050;23;20155;-63
2022/04/18 06:43:16;;;;;;;10.55;6.55;;;;;;;;;;6215843;23;20173;-63
2022/04/18 06:45:42;;;;;;;10.52;6.65;;;;;;;;;;6215977;23;20207;-64
2022/04/18 06:48:08;;;;;;;9.55;5.90;;;;;;;;;;6215957;23;20141;-64
2022/04/18 06:50:34;;;;;;;8.45;6.55;;;;;;;;;;6216046;23;20619;-64
2022/04/18 06:53:00;;;;;;;7.78;5.85;;;;;;;;;;6215847;23;20148;-64
2022/04/18 06:55:26;;;;;;;8.70;6.38;;;;;;;;;;6215903;23;20145;-63
2022/04/18 06:57:52;;;;;;;9.88;6.30;;;;;;;;;;6216220;23;20163;-63
2022/04/18 07:00:18;;;;;;;9.65;6.85;;;;;;;;;;6216924;23;20611;-64
2022/04/18 07:02:45;;;;;;;7.90;6.20;;;;;;;;;;6218494;23;20144;-64
2022/04/18 07:05:11;;;;;;;10.73;6.47;;;;;;;;;;6217896;23;20172;-64
2022/04/18 07:07:37;;;;;;;10.02;7.53;;;;;;;;;;6217934;23;20141;-64
2022/04/18 07:10:04;;;;;;;9.75;6.78;;;;;;;;;;6217944;23;20184;-64
2022/04/18 07:12:30;;;;;;;9.90;7.45;;;;;;;;;;6217945;23;20224;-64
2022/04/18 07:14:59;;;;;;;11.20;7.65;;;;;;;;;;6191521;23;20171;-64
2022/04/18 07:17:25;;;;;;;10.63;7.80;;;;;;;;;;6217742;23;20167;-63
2022/04/18 07:19:51;;;;;;;8.73;6.72;;;;;;;;;;6218199;23;20609;-65
2022/04/18 07:22:17;;;;;;;10.02;7.82;;;;;;;;;;6217717;23;20198;-64
2022/04/18 07:24:43;;;;;;;10.18;8.35;;;;;;;;;;6217762;23;20196;-64
2022/04/18 07:27:09;;;;;;;10.73;8.30;;;;;;;;;;6217737;23;20141;-64
2022/04/18 07:29:34;;;;;;;12.43;7.72;;;;;;;;;;6217813;23;20584;-64
2022/04/18 07:32:01;;;;;;;10.07;7.63;;;;;;;;;;6217732;23;20160;-63
2022/04/18 07:34:28;;;;;;;11.20;8.07;;;;;;;;;;6217682;23;20194;-64
2022/04/18 07:36:53;;;;;;;10.80;8.07;;;;;;;;;;6217942;23;20152;-64
2022/04/18 07:39:19;;;;;;;11.00;8.10;;;;;;;;;;6217573;23;20141;-63
2022/04/18 07:41:45;;;;;;;11.93;7.50;;;;;;;;;;6217654;23;20172;-63
2022/04/18 07:44:11;;;;;;;9.50;6.38;;;;;;;;;;6217575;23;20483;-64
2022/04/18 07:46:37;;;;;;;8.82;6.57;;;;;;;;;;6217923;23;20152;-64
2022/04/18 07:49:03;;;;;;;8.65;6.40;;;;;;;;;;6217402;23;20176;-64
2022/04/18 07:51:35;;;;;;;9.93;6.53;;;;;;;;;;6217606;23;20137;-64
2022/04/18 07:54:05;;;;;;;8.13;5.95;;;;;;;;;;6217870;23;20129;-63
2022/04/18 07:56:31;;;;;;;9.75;5.55;;;;;;;;;;6217886;23;20141;-63
2022/04/18 07:58:57;;;;;;;7.43;5.07;;;;;;;;;;6217722;23;20148;-64
2022/04/18 08:01:24;;;;;;;7.32;5.45;;;;;;;;;;6217586;23;20568;-64
2022/04/18 08:03:50;;;;;;;5.80;4.32;;;;;;;;;;6217311;23;20621;-64
2022/04/18 08:06:16;;;;;;;6.53;4.28;;;;;;;;;;6217858;23;20172;-64
2022/04/18 08:08:43;;;;;;;6.05;4.18;;;;;;;;;;6217654;23;20140;-63
2022/04/18 08:11:11;;;;;;;6.05;4.18;;;;;;;;;;6217126;23;20244;-64
2022/04/18 08:13:38;;;;;;;7.07;4.43;;;;;;;;;;6217600;23;20556;-64
2022/04/18 08:16:04;;;;;;;6.82;4.57;;;;;;;;;;6217679;23;20596;-64
2022/04/18 08:18:30;;;;;;;6.13;4.50;;;;;;;;;;6217540;23;20178;-64
2022/04/18 08:20:56;;;;;;;4.82;3.38;;;;;;;;;;6217305;23;20152;-64
2022/04/18 08:23:22;;;;;;;5.80;4.20;;;;;;;;;;6217502;23;20211;-64
2022/04/18 08:25:48;;;;;;;5.18;3.65;;;;;;;;;;6217644;23;20163;-64
2022/04/18 08:28:14;;;;;;;5.05;3.50;;;;;;;;;;6217049;23;20168;-64
2022/04/18 08:30:40;;;;;;;5.72;3.92;;;;;;;;;;6217355;23;20191;-64
2022/04/18 08:33:06;;;;;;;4.85;3.88;;;;;;;;;;6217183;23;20560;-64
2022/04/18 08:35:32;;;;;;;5.95;3.85;;;;;;;;;;6217206;23;20145;-62
2022/04/18 08:37:58;;;;;;;4.15;3.70;;;;;;;;;;6217197;23;20147;-62
2022/04/18 08:40:24;;;;;;;5.63;4.00;;;;;;;;;;6217134;23;20141;-64
2022/04/18 08:42:54;;;;;;;4.85;3.85;;;;;;;;;;6216744;23;20203;-63
2022/04/18 08:45:23;;;;;;;6.53;3.38;;;;;;;;;;6216971;23;20585;-63
2022/04/18 08:53:20;;;;;;;5.35;4.05;;;;;;;;;;6217022;23;20488;-63
2022/04/18 08:55:46;;;;;;;4.68;3.45;;;;;;;;;;6217074;23;20140;-63
2022/04/18 08:58:14;;;;;;;5.18;3.53;;;;;;;;;;6216925;23;20141;-63
2022/04/18 09:00:41;;;;;;;4.20;3.30;;;;;;;;;;6217121;23;20164;-62
2022/04/18 09:03:07;;;;;;;5.63;3.13;;;;;;;;;;6216928;23;20141;-64
2022/04/18 09:05:35;;;;;;;5.82;3.65;;;;;;;;;;6217211;23;20144;-63
2022/04/18 09:08:02;;;;;;;4.45;3.55;;;;;;;;;;6217332;23;20148;-63
2022/04/18 09:10:28;;;;;;;5.35;3.92;;;;;;;;;;6216984;23;20168;-62
2022/04/18 09:13:02;;;;;;;6.15;3.67;;;;;;;;;;6217262;23;20145;-63
2022/04/18 09:15:38;;;;;;;7.20;3.65;;;;;;;;;;6217530;23;20526;-63
2022/04/18 09:18:12;;;;;;;6.30;4.18;;;;;;;;;;6217794;23;20137;-62
2022/04/18 09:20:42;;;;;;;6.90;4.25;;;;;;;;;;6217638;23;20155;-63
2022/04/18 09:23:19;;;;;;;6.47;4.43;;;;;;;;;;6216729;23;20145;-63
2022/04/18 09:25:45;;;;;;;6.13;4.10;;;;;;;;;;6217088;23;20435;-62
2022/04/18 09:28:11;;;;;;;7.00;4.35;;;;;;;;;;6217064;23;20137;-63
2022/04/18 09:30:37;;;;;;;6.97;4.13;;;;;;;;;;6216979;23;20137;-63
2022/04/18 09:33:05;;;;;;;6.50;3.95;;;;;;;;;;6217274;23;20141;-63
2022/04/18 09:35:32;;;;;;;5.10;3.75;;;;;;;;;;6216900;23;20639;-63
2022/04/18 09:38:01;;;;;;;6.22;4.18;;;;;;;;;;6217043;23;20145;-64
2022/04/18 09:40:27;;;;;;;5.80;4.20;;;;;;;;;;6217057;23;20141;-64
2022/04/18 09:42:56;;;;;;;5.35;3.55;;;;;;;;;;6191302;23;20226;-65
2022/04/18 09:45:22;;;;;;;5.65;3.63;;;;;;;;;;6216872;23;20168;-64
2022/04/18 09:47:55;;;;;;;3.83;2.72;;;;;;;;;;6216821;23;20141;-64
2022/04/18 09:53:36;;;;;;;4.05;2.50;;;;;;;;;;6217367;23;20140;-64
2022/04/18 09:56:02;;;;;;;2.85;1.70;;;;;;;;;;6214132;23;20461;-63
2022/04/18 09:58:28;;;;;;;3.65;1.90;;;;;;;;;;6217173;23;20142;-63
2022/04/18 10:00:55;;;;;;;3.00;2.22;;;;;;;;;;6217187;23;20538;-63
2022/04/18 10:03:21;;;;;;;3.47;2.50;;;;;;;;;;6216951;23;20140;-63
2022/04/18 10:05:51;;;;;;;5.22;2.90;;;;;;;;;;6217312;23;20213;-63
2022/04/18 10:08:17;;;;;;;4.88;3.28;;;;;;;;;;6217374;23;20231;-63
2022/04/18 10:10:43;;;;;;;4.97;3.38;;;;;;;;;;6216523;23;20207;-63
2022/04/18 10:13:09;;;;;;;4.20;2.88;;;;;;;;;;6217277;23;20228;-64
2022/04/18 10:15:36;;;;;;;3.97;2.60;;;;;;;;;;6216984;23;20179;-63
2022/04/18 10:18:03;;;;;;;4.03;2.97;;;;;;;;;;6218389;23;20623;-63
2022/04/18 10:20:44;;;;;;;4.57;3.10;;;;;;;;;;6217880;23;20220;-63
2022/04/18 10:23:13;;;;;;;4.40;3.00;;;;;;;;;;6220724;23;20172;-63
2022/04/18 10:25:58;;;;;;;4.55;3.22;;;;;;;;;;6220929;23;20145;-64
2022/04/18 10:28:30;;;;;;;4.40;3.08;;;;;;;;;;6221013;23;20141;-63
2022/04/18 10:30:58;;;;;;;5.65;3.38;;;;;;;;;;6221365;23;20141;-63
2022/04/18 10:33:24;;;;;;;3.80;2.75;;;;;;;;;;6221562;23;20154;-63
2022/04/18 10:36:03;;;;;;;4.70;3.15;;;;;;;;;;6220656;23;20183;-63
2022/04/18 10:38:33;;;;;;;5.00;3.30;;;;;;;;;;6219474;23;20462;-63
2022/04/18 10:41:15;;;;;;;5.90;3.42;;;;;;;;;;6222580;23;20366;-63
2022/04/18 10:43:55;;;;;;;4.72;3.03;;;;;;;;;;6234408;23;20165;-64
2022/04/18 10:46:21;;;;;;;7.22;4.93;;;;;;;;;;6232689;23;20125;-63
2022/04/18 10:49:01;;;;;;;7.43;5.28;;;;;;;;;;6236128;23;20180;-63
2022/04/18 10:51:28;;;;;;;5.80;4.38;;;;;;;;;;6235651;23;20152;-64
2022/04/18 10:54:10;;;;;;;7.65;4.90;;;;;;;;;;6235564;23;20163;-63
2022/04/18 10:56:56;;;;;;;6.43;5.00;;;;;;;;;;6219096;23;20176;-63
2022/04/18 10:59:21;;;;;;;6.00;4.90;;;;;;;;;;6216300;23;20145;-63
2022/04/18 11:01:48;;;;;;;7.63;5.03;;;;;;;;;;6216163;23;20206;-63
2022/04/18 11:04:14;;;;;;;7.43;4.80;;;;;;;;;;6215861;23;20596;-63
2022/04/18 11:06:40;;;;;;;5.78;4.63;;;;;;;;;;6216078;23;20220;-63
2022/04/18 11:09:07;;;;;;;7.38;4.95;;;;;;;;;;6215939;23;20165;-65
2022/04/18 11:11:37;;;;;;;7.32;5.10;;;;;;;;;;6216582;23;20577;-63
2022/04/18 11:14:13;;;;;;;5.28;3.92;;;;;;;;;;6217203;23;20145;-63
2022/04/18 11:16:42;;;;;;;8.05;5.35;;;;;;;;;;6216819;23;20428;-63
2022/04/18 11:19:08;;;;;;;6.88;5.60;;;;;;;;;;6216040;23;20141;-63
2022/04/18 11:24:41;;;;;;;6.13;4.65;;;;;;;;;;6216447;23;20179;-63
2022/04/18 11:27:08;;;;;;;6.30;4.85;;;;;;;;;;6216007;23;20168;-62
2022/04/18 11:29:34;;;;;;;6.63;4.88;;;;;;;;;;6216365;23;20141;-62
2022/04/18 11:32:01;;;;;;;8.60;5.35;;;;;;;;;;6215854;23;20469;-62
2022/04/18 11:34:27;;;;;;;7.20;5.28;;;;;;;;;;6215748;23;20644;-62
2022/04/18 11:36:55;;;;;;;6.55;5.20;;;;;;;;;;6189532;23;20504;-63
2022/04/18 11:39:21;;;;;;;8.45;4.93;;;;;;;;;;6215959;23;20155;-63
2022/04/18 11:41:47;;;;;;;7.47;5.03;;;;;;;;;;6215880;23;20241;-63
2022/04/18 11:44:18;;;;;;;6.72;5.05;;;;;;;;;;6216267;23;20184;-64
2022/04/18 11:46:44;;;;;;;6.82;5.15;;;;;;;;;;6217602;23;20125;-65
2022/04/18 11:49:10;;;;;;;7.75;5.38;;;;;;;;;;6217935;23;20148;-64
2022/04/18 11:51:37;;;;;;;7.28;5.32;;;;;;;;;;6219129;23;20141;-64
2022/04/18 11:54:03;;;;;;;7.30;5.03;;;;;;;;;;6218137;23;20141;-63
2022/04/18 11:56:29;;;;;;;8.35;6.20;;;;;;;;;;6218339;23;20145;-64
2022/04/18 11:58:54;;;;;;;7.25;5.28;;;;;;;;;;6218563;23;20178;-64
2022/04/18 12:06:50;;;;;;;7.63;5.78;;;;;;;;;;6218090;23;20144;-64
2022/04/18 12:09:18;;;;;;;7.10;5.10;;;;;;;;;;6218185;23;20149;-64
2022/04/18 12:11:44;;;;;;;6.20;5.18;;;;;;;;;;6217971;23;20449;-63
2022/04/18 12:14:10;;;;;;;8.68;6.25;;;;;;;;;;6218256;23;20145;-64
2022/04/18 12:16:38;;;;;;;8.10;6.35;;;;;;;;;;6218022;23;20152;-63
2022/04/18 12:19:04;;;;;;;11.27;6.68;;;;;;;;;;6218552;23;20141;-63
2022/04/18 12:21:31;;;;;;;8.98;6.68;;;;;;;;;;6217988;23;20190;-63
2022/04/18 12:23:58;;;;;;;8.18;5.75;;;;;;;;;;6218006;23;20405;-63
2022/04/18 12:26:25;;;;;;;8.85;6.05;;;;;;;;;;6218587;23;20141;-63
2022/04/18 12:28:57;;;;;;;7.97;5.70;;;;;;;;;;6219061;23;20493;-63
2022/04/18 12:31:23;;;;;;;8.00;5.90;;;;;;;;;;6227560;23;20125;-63
2022/04/18 12:33:50;;;;;;;8.88;6.03;;;;;;;;;;6223504;23;20206;-63
2022/04/18 12:36:30;;;;;;;7.75;5.60;;;;;;;;;;6216930;23;20156;-63
2022/04/18 12:38:56;;;;;;;8.05;5.88;;;;;;;;;;6217184;23;20234;-63
2022/04/18 12:41:37;;;;;;;9.00;6.80;;;;;;;;;;6217218;23;20145;-63
2022/04/18 12:44:10;;;;;;;10.18;7.03;;;;;;;;;;6217267;23;20165;-64
2022/04/18 12:46:36;;;;;;;8.13;6.28;;;;;;;;;;6216775;23;20456;-63
2022/04/18 12:49:06;;;;;;;9.13;6.20;;;;;;;;;;6216798;23;20151;-63
2022/04/18 12:51:33;;;;;;;9.05;6.45;;;;;;;;;;6216974;23;20151;-64
2022/04/18 12:53:59;;;;;;;10.50;6.70;;;;;;;;;;6216911;23;20168;-64
2022/04/18 12:56:26;;;;;;;9.68;6.90;;;;;;;;;;6217243;23;20529;-64
2022/04/18 12:58:54;;;;;;;8.68;6.60;;;;;;;;;;6216515;23;20152;-64
2022/04/18 13:01:24;;;;;;;9.25;6.10;;;;;;;;;;6216987;23;20152;-63
2022/04/18 13:03:51;;;;;;;10.10;6.22;;;;;;;;;;6217121;23;20609;-63
2022/04/18 13:06:24;;;;;;;8.07;6.32;;;;;;;;;;6217160;23;20145;-63
2022/04/18 13:08:50;;;;;;;9.25;6.28;;;;;;;;;;6190571;23;20511;-63
2022/04/18 13:11:17;;;;;;;9.60;6.97;;;;;;;;;;6216717;23;20167;-64
2022/04/18 13:13:44;;;;;;;10.23;7.13;;;;;;;;;;6217188;23;20179;-63
2022/04/18 13:16:23;;;;;;;10.38;7.63;;;;;;;;;;6216723;23;20207;-63
2022/04/18 13:18:56;;;;;;;9.98;7.57;;;;;;;;;;6216866;23;20140;-64
2022/04/18 13:21:22;;;;;;;12.85;8.50;;;;;;;;;;6216945;23;20153;-64
2022/04/18 13:23:48;;;;;;;12.02;8.40;;;;;;;;;;6217064;23;20230;-64
2022/04/18 13:26:14;;;;;;;8.90;6.60;;;;;;;;;;6216857;23;20437;-64
2022/04/18 13:28:40;;;;;;;7.95;5.22;;;;;;;;;;6216927;23;20264;-63
2022/04/18 13:31:06;;;;;;;8.35;5.65;;;;;;;;;;6216609;23;20138;-64
2022/04/18 13:33:32;;;;;;;7.93;5.30;;;;;;;;;;6217020;23;20144;-63
2022/04/18 13:38:42;;;;;;;7.55;5.30;;;;;;;;;;6216767;23;20171;-64
2022/04/18 13:41:08;;;;;;;7.25;5.07;;;;;;;;;;6216378;23;20227;-64
2022/04/18 13:43:34;;;;;;;6.60;4.90;;;;;;;;;;6216774;23;20137;-64
2022/04/18 13:46:03;;;;;;;6.97;4.70;;;;;;;;;;6216575;23;20537;-64
2022/04/18 13:48:29;;;;;;;6.97;4.30;;;;;;;;;;6216710;23;20152;-64
2022/04/18 13:50:54;;;;;;;5.55;3.92;;;;;;;;;;6216562;23;20137;-63
2022/04/18 13:53:20;;;;;;;6.55;3.75;;;;;;;;;;6216420;23;20412;-63
2022/04/18 13:55:46;;;;;;;5.65;3.90;;;;;;;;;;6216956;23;20144;-64
2022/04/18 13:58:12;;;;;;;5.60;3.50;;;;;;;;;;6216256;23;20140;-64
2022/04/18 14:00:43;;;;;;;4.28;3.10;;;;;;;;;;6216840;23;20141;-63
2022/04/18 14:03:09;;;;;;;5.90;3.88;;;;;;;;;;6216447;23;20530;-64
2022/04/18 14:05:37;;;;;;;5.32;3.40;;;;;;;;;;6216663;23;20227;-64
2022/04/18 14:08:02;;;;;;;4.63;3.35;;;;;;;;;;6216230;23;20413;-64
2022/04/18 14:10:28;;;;;;;5.28;4.00;;;;;;;;;;6216123;23;20153;-63
2022/04/18 14:12:54;;;;;;;5.53;4.05;;;;;;;;;;6216329;23;20552;-64
2022/04/18 14:20:50;;;;;;;9.00;5.28;;;;;;;;;;6216321;23;20228;-63
2022/04/18 14:23:16;;;;;;;7.35;5.15;;;;;;;;;;6216921;23;20513;-63
2022/04/18 14:25:42;;;;;;;6.60;5.05;;;;;;;;;;6216136;23;20176;-63
2022/04/18 14:28:08;;;;;;;9.15;5.13;;;;;;;;;;6216044;23;20160;-63
2022/04/18 14:30:34;;;;;;;6.32;4.95;;;;;;;;;;6216279;23;20137;-64
2022/04/18 14:33:00;;;;;;;7.10;5.22;;;;;;;;;;6216182;23;20151;-64
2022/04/18 14:35:26;;;;;;;6.78;4.85;;;;;;;;;;6216174;23;20176;-64
2022/04/18 14:37:52;;;;;;;8.10;5.38;;;;;;;;;;6216143;23;20207;-64
2022/04/18 14:40:19;;;;;;;7.65;4.95;;;;;;;;;;6216499;23;20180;-64
2022/04/18 14:42:44;;;;;;;5.90;4.65;;;;;;;;;;6216016;23;20151;-64
2022/04/18 14:45:10;;;;;;;7.68;5.10;;;;;;;;;;6215947;23;20164;-64
2022/04/18 14:47:37;;;;;;;6.75;4.82;;;;;;;;;;6215724;23;20432;-64
2022/04/18 14:50:03;;;;;;;7.43;5.13;;;;;;;;;;6216427;23;20218;-64
2022/04/18 14:52:30;;;;;;;7.57;4.50;;;;;;;;;;6216008;23;20137;-64
2022/04/18 14:54:56;;;;;;;6.38;4.28;;;;;;;;;;6216414;23;20168;-64
2022/04/18 14:57:22;;;;;;;7.22;3.92;;;;;;;;;;6215883;23;20152;-64
2022/04/18 14:59:48;;;;;;;6.43;4.20;;;;;;;;;;6216446;23;20156;-65
2022/04/18 15:02:16;;;;;;;5.15;3.78;;;;;;;;;;6216020;23;20212;-64
2022/04/18 15:04:42;;;;;;;5.32;3.50;;;;;;;;;;6216275;23;20168;-64
2022/04/18 15:07:08;;;;;;;5.43;3.65;;;;;;;;;;6216068;23;20419;-64
2022/04/18 15:09:34;;;;;;;4.55;3.28;;;;;;;;;;6216109;23;20163;-64